Flight Track Log - Related Links

Times and Time Zones

All times are in EDT time to prevent confusion due to time zone crossing. See the BVN7571 flight status page for this flight to view local times or setup timezone preferences in your user account.

Time Position Orientation Groundspeed Altitude Reporting Facility
EDT Latitude Longitude Course Direction KTS MPH feet Rate Location/Type
Tue 07:59:37 PM 40.7231 -98.9672 82° East 153 176 3,800  Level Minneapolis Center
Tue 08:00:39 PM 40.7283 -98.9156 82° East 143 165 4,500 726 Climbing Minneapolis Center
Tue 08:01:41 PM 40.7383 -98.8667 75° East 141 162 5,300 677 Climbing Minneapolis Center
Tue 08:02:43 PM 40.7544 -98.8225 64° Northeast 138 159 5,900 629 Climbing Minneapolis Center
Tue 08:03:45 PM 40.7622 -98.7783 77° East 136 157 6,600 581 Climbing Minneapolis Center
Tue 08:04:47 PM 40.7681 -98.7219 82° East 132 152 7,100 484 Climbing Minneapolis Center
Tue 08:05:49 PM 40.7742 -98.6733 81° East 132 152 7,600 484 Climbing Minneapolis Center
Tue 08:06:51 PM 40.7878 -98.6261 69° East 136 157 8,100 435 Climbing Minneapolis Center
Tue 08:07:53 PM 40.7994 -98.5769 73° East 138 159 8,500 435 Climbing Minneapolis Center
Tue 08:08:55 PM 40.8114 -98.5269 72° East 140 161 9,000 290 Climbing Minneapolis Center
Tue 08:09:57 PM 40.8244 -98.4600 76° East 149 171 9,100 48 Climbing Minneapolis Center
Tue 08:10:59 PM 40.8369 -98.3975 75° East 167 192 9,100  Level Minneapolis Center
Tue 08:12:01 PM 40.8492 -98.3353 75° East 174 200 9,100  Level Minneapolis Center
Tue 08:13:03 PM 40.8619 -98.2739 75° East 173 199 9,100  Level Minneapolis Center
Tue 08:14:05 PM 40.8731 -98.2147 76° East 169 194 9,100  Level Minneapolis Center
Tue 08:15:07 PM 40.8839 -98.1561 76° East 166 191 9,100  Level Minneapolis Center
Tue 08:16:10 PM 40.8975 -98.0861 76° East 164 189 9,100  Level Minneapolis Center
Tue 08:17:12 PM 40.9089 -98.0272 76° East 165 190 9,100  Level Minneapolis Center
Tue 08:18:14 PM 40.9203 -97.9686 76° East 165 190 9,100  Level Minneapolis Center
Tue 08:19:16 PM 40.9319 -97.9100 75° East 165 190 9,100  Level Minneapolis Center
Tue 08:20:18 PM 40.9425 -97.8500 77° East 166 191 9,100  Level Minneapolis Center
Tue 08:21:19 PM 40.9553 -97.7914 74° East 167 192 9,100  Level Minneapolis Center
Tue 08:22:21 PM 40.9656 -97.7314 77° East 167 192 9,100 -48 Level Minneapolis Center
Tue 08:23:23 PM 40.9792 -97.6600 76° East 167 192 9,000 -47 Descending Minneapolis Center
Tue 08:24:28 PM 40.9686 -97.5956 102° East 166 191 9,000  Level Minneapolis Center
Tue 08:25:10 PM 40.9789 -97.5506 73° East 168 193 9,000  Level Minneapolis Center
Tue 08:25:27 PM 41.0017 -97.5403 19° North 169 194 9,000  Level Minneapolis Center
Tue 08:26:11 PM 40.9906 -97.4917 107° East 168 193 9,000  Level Minneapolis Center
Tue 08:26:29 PM 41.0133 -97.4814 19° North 167 192 9,000  Level Minneapolis Center
Tue 08:27:11 PM 41.0019 -97.4328 107° East 167 192 9,000  Level Minneapolis Center
Tue 08:27:31 PM 41.0253 -97.4219 19° North 167 192 9,000 -73 Level Minneapolis Center
Tue 08:28:33 PM 41.0375 -97.3606 75° East 168 193 8,900  Descending Minneapolis Center
Tue 08:29:13 PM 41.0289 -97.3089 102° East 169 194 9,000 97 Climbing Minneapolis Center
Tue 08:29:35 PM 41.0475 -97.2997 20° North 168 193 9,000  Level Minneapolis Center
Tue 08:30:13 PM 41.0403 -97.2497 101° East 168 193 9,000  Level Minneapolis Center
Tue 08:30:37 PM 41.0611 -97.2278 38° Northeast 169 194 9,000  Level Minneapolis Center
Tue 08:31:14 PM 41.0517 -97.1908 109° East 167 192 9,000  Level Minneapolis Center
Tue 08:31:39 PM 41.0725 -97.1678 40° Northeast 167 192 9,000  Level Minneapolis Center
Tue 08:32:21 PM 41.0647 -97.1258 104° East 166 191 9,000  Level Minneapolis Center
Tue 08:32:42 PM 41.0831 -97.1083 36° Northeast 167 192 9,000  Level Minneapolis Center
Tue 08:33:27 PM 41.0778 -97.0611 98° East 165 190 9,000  Level Minneapolis Center
Tue 08:33:44 PM 41.0947 -97.0494 27° Northeast 166 191 9,000  Level Minneapolis Center
Tue 08:34:34 PM 41.0908 -96.9936 95° East 166 191 9,000  Level Minneapolis Center
Tue 08:34:46 PM 41.1053 -96.9892 13° North 167 192 9,000  Level Minneapolis Center
Tue 08:35:23 PM 41.0986 -96.9486 102° East 167 192 9,000  Level Minneapolis Center
Tue 08:35:48 PM 41.1164 -96.9300 38° Northeast 167 192 9,000  Level Minneapolis Center
Tue 08:36:23 PM 41.1117 -96.8836 98° East 169 194 9,000  Level Minneapolis Center
Tue 08:36:50 PM 41.1281 -96.8689 34° Northeast 170 196 9,000  Level Minneapolis Center
Tue 08:37:30 PM 41.1267 -96.8186 92° East 169 194 9,000  Level Minneapolis Center
Tue 08:37:52 PM 41.1411 -96.7969 48° Northeast 168 193 9,000  Level Minneapolis Center
Tue 08:38:30 PM 41.1378 -96.7594 97° East 170 196 9,000  Level Minneapolis Center
Tue 08:38:54 PM 41.1528 -96.7358 50° Northeast 170 196 9,000  Level Minneapolis Center
Tue 08:39:31 PM 41.1489 -96.6975 98° East 172 198 9,000  Level Minneapolis Center
Tue 08:39:56 PM 41.1639 -96.6742 50° Northeast 172 198 9,000  Level Minneapolis Center
Tue 08:40:32 PM 41.1553 -96.6303 105° East 183 211 9,000 -97 Level Minneapolis Center
Tue 08:40:58 PM 41.1658 -96.6100 55° Northeast 174 200 8,900 -600 Descending Minneapolis Center
Tue 08:41:32 PM 41.1553 -96.5611 106° East 191 220 8,400 -677 Descending Minneapolis Center
Tue 08:42:00 PM 41.1644 -96.5397 60° Northeast 185 213 8,200 -393 Descending Minneapolis Center
Tue 08:42:33 PM 41.1572 -96.4889 101° East 192 221 8,000 -581 Descending Minneapolis Center
Tue 08:43:02 PM 41.1661 -96.4689 59° Northeast 189 217 7,600 -984 Descending Minneapolis Center
Tue 08:43:34 PM 41.1592 -96.4169 100° East 205 236 7,000 -1,065 Descending Minneapolis Center
Tue 08:44:04 PM 41.1656 -96.3803 77° East 195 224 6,500 -1,091 Descending Minneapolis Center
Tue 08:44:29 PM 41.1589 -96.3478 105° East 201 231 6,000 -968 Descending Minneapolis Center
Tue 08:45:06 PM 41.1656 -96.3067 78° East 199 229 5,500 -1,000 Descending Minneapolis Center
Tue 08:45:29 PM 41.1608 -96.2756 101° East 190 219 5,000 -484 Descending Minneapolis Center
Tue 08:46:08 PM 41.1653 -96.2389 81° East 194 223 5,000 -98 Level Minneapolis Center
Tue 08:46:30 PM 41.1631 -96.2117 96° East 172 198 4,900 -97 Descending Minneapolis Center
Tue 08:47:10 PM 41.1661 -96.1778 83° East 181 208 4,900  Level Minneapolis Center
Tue 08:47:36 PM 41.1631 -96.1481 98° East 164 189 4,900  Level Minneapolis Center
Tue 08:48:12 PM 41.1667 -96.1178 81° East 171 197 4,900  Level Minneapolis Center
Tue 08:48:37 PM 41.1633 -96.0842 97° East 163 188 4,900 97 Level Minneapolis Center
Tue 08:49:14 PM 41.1672 -96.0461 82° East 165 190 5,000  Climbing Minneapolis Center
Tue 08:49:37 PM 41.1633 -96.0233 103° East 165 190 4,900  Descending Minneapolis Center
Tue 08:50:16 PM 41.1611 -95.9858 94° East 165 190 5,000 90 Climbing Minneapolis Center
Tue 08:50:44 PM 41.1528 -95.9581 112° Southeast 171 197 5,000 -290 Level Minneapolis Center
Tue 08:51:18 PM 41.1500 -95.9244 96° East 168 193 4,700 -822 Descending Minneapolis Center
Tue 08:51:57 PM 41.1433 -95.8761 100° East 206 237 4,000 -871 Descending Minneapolis Center
Tue 08:52:20 PM 41.1447 -95.8547 85° East 179 206 3,800 -764 Descending Minneapolis Center
Tue 08:52:52 PM 41.1678 -95.8344 34° Northeast 154 177 3,300 -774 Descending Minneapolis Center
Tue 08:53:22 PM 41.1811 -95.8225 34° Northeast 165 190 3,000 -300 Descending Minneapolis Center
Tue 08:53:52 PM 41.2039 -95.8136 16° North 129 148 3,000  Level Minneapolis Center
Tue 08:54:24 PM 41.2203 -95.8136 360° North 145 167 3,000 -448 Level Minneapolis Center
Tue 08:54:59 PM 41.2364 -95.8294 324° Northwest 105 121 2,500 -774 Descending Minneapolis Center
Tue 08:55:26 PM 41.2456 -95.8353 334° Northwest 120 138 2,200 -600 Descending Minneapolis Center
Tue 08:55:59 PM 41.2589 -95.8517 317° Northwest 102 117 1,900 -476 Descending Minneapolis Center
Tue 08:56:29 PM 41.2686 -95.8578 335° Northwest 110 127 1,700 -590 Descending Minneapolis Center
Tue 08:57:00 PM 41.2836 -95.8764 317° Northwest 108 124 1,300 -581 Descending Minneapolis Center
Tue 08:57:31 PM 41.2936 -95.8811 340° North 109 125 1,100 -387 Descending Minneapolis Center

Login

Don't have an account? Register now (free) for customized features, flight alerts, and more!